Terminal Aerodrome Forecast
Issued by NWS Pueblo, CO

Home | Current Version | Previous Version | Text Only | Print | Product List | Glossary On
Versions: 1 2 3 4 5 6 7 8 9 10 11 12 13 14 15 16 17 18 19 20 21 22 23 24 25 26 27 28 29 30 31 32 33 34 35 36 37 38 39 40 41 42 43 44 45 46 47 48
000
FTUS45 KPUB 230536
TAFPUB
TAF
KPUB 230536Z 2306/2406 01012KT P6SM FEW050 SCT090 SCT150
     FM231100 VRB04KT P6SM SCT010 BKN200
     FM231700 17010G20KT P6SM VCTS SCT070CB BKN140
     FM240300 VRB06KT P6SM FEW050 SCT080 BKN140=

USA.gov is the U.S. government's official web portal to all federal, state and local government web resources and services.